Time;durP1;ratioP1;P1;durP2;ratioP2;P2;SDS_P1;SDS_P2;PMS_P1;PMS_P2;Temp;Humidity;BMP_temperature;BMP_pressure;BME280_temperature;BME280_humidity;BME280_pressure;Samples;Min_cycle;Max_cycle;Signal;HPM_P1;HPM_P2
2023/06/07 00:02:26;;;;;;;3.33;3.13;;;;;;;;;;5076472;28;20523;-55
2023/06/07 00:04:51;;;;;;;3.33;3.13;;;;;;;;;;5077134;28;20464;-56
2023/06/07 00:07:18;;;;;;;3.25;3.05;;;;;;;;;;5076826;28;20028;-55
2023/06/07 00:09:43;;;;;;;4.57;3.10;;;;;;;;;;5077248;28;20032;-62
2023/06/07 00:12:10;;;;;;;3.33;3.08;;;;;;;;;;5077358;28;20035;-62
2023/06/07 00:14:36;;;;;;;3.53;3.13;;;;;;;;;;5077131;28;20150;-62
2023/06/07 00:17:02;;;;;;;3.58;3.38;;;;;;;;;;5076733;28;20510;-62
2023/06/07 00:19:29;;;;;;;3.50;3.20;;;;;;;;;;5076701;28;20073;-62
2023/06/07 00:22:04;;;;;;;3.40;3.20;;;;;;;;;;5076605;28;20031;-62
2023/06/07 00:24:29;;;;;;;3.65;2.97;;;;;;;;;;5076713;28;20028;-55
2023/06/07 00:26:56;;;;;;;3.08;2.88;;;;;;;;;;5075595;23;20050;-62
2023/06/07 00:29:21;;;;;;;3.03;2.83;;;;;;;;;;5036730;28;20037;-61
2023/06/07 00:31:48;;;;;;;3.40;3.20;;;;;;;;;;5036478;28;20183;-61
2023/06/07 00:34:14;;;;;;;3.95;3.65;;;;;;;;;;5036678;28;20060;-61
2023/06/07 00:36:40;;;;;;;3.63;3.42;;;;;;;;;;5036261;28;20025;-61
2023/06/07 00:39:05;;;;;;;3.50;3.30;;;;;;;;;;5018833;28;20353;-61
2023/06/07 00:41:30;;;;;;;3.65;3.35;;;;;;;;;;5036852;28;20037;-62
2023/06/07 00:43:56;;;;;;;4.40;3.60;;;;;;;;;;5036384;28;20481;-62
2023/06/07 00:46:26;;;;;;;3.42;3.17;;;;;;;;;;5018430;28;20053;-62
2023/06/07 00:48:53;;;;;;;3.22;3.03;;;;;;;;;;5019151;28;20068;-62
2023/06/07 00:51:19;;;;;;;2.92;2.72;;;;;;;;;;5051443;28;20045;-62
2023/06/07 00:53:48;;;;;;;3.00;2.80;;;;;;;;;;5036466;28;20029;-62
2023/06/07 00:56:15;;;;;;;3.05;2.85;;;;;;;;;;5018771;28;20036;-56
2023/06/07 00:58:42;;;;;;;3.08;2.88;;;;;;;;;;5051311;28;20056;-55
2023/06/07 01:01:09;;;;;;;3.63;3.22;;;;;;;;;;5018730;28;20425;-55
2023/06/07 01:03:34;;;;;;;2.92;2.80;;;;;;;;;;5018034;28;20029;-55
2023/06/07 01:06:02;;;;;;;3.88;3.53;;;;;;;;;;5051738;28;20030;-55
2023/06/07 01:08:28;;;;;;;3.47;3.28;;;;;;;;;;5017732;28;20069;-55
2023/06/07 01:10:53;;;;;;;3.70;2.90;;;;;;;;;;5035735;28;20036;-60
2023/06/07 01:13:18;;;;;;;3.97;3.58;;;;;;;;;;5035903;28;20021;-60
2023/06/07 01:15:44;;;;;;;3.85;3.58;;;;;;;;;;5050914;28;20439;-60
2023/06/07 01:18:10;;;;;;;4.38;3.92;;;;;;;;;;5035805;28;20083;-61
2023/06/07 01:20:36;;;;;;;3.85;3.65;;;;;;;;;;5036000;28;20087;-60
2023/06/07 01:23:03;;;;;;;4.25;3.85;;;;;;;;;;5035813;28;20037;-60
2023/06/07 01:25:28;;;;;;;4.18;3.88;;;;;;;;;;5018421;28;20473;-60
2023/06/07 01:27:56;;;;;;;4.07;3.75;;;;;;;;;;5017577;28;20150;-61
2023/06/07 01:30:23;;;;;;;4.13;3.83;;;;;;;;;;5035572;28;20107;-56
2023/06/07 01:32:50;;;;;;;4.10;3.72;;;;;;;;;;5035368;28;20439;-56
2023/06/07 01:35:16;;;;;;;4.07;3.78;;;;;;;;;;5017405;28;20048;-56
2023/06/07 01:37:42;;;;;;;4.32;4.03;;;;;;;;;;5050584;28;20068;-56
2023/06/07 01:40:08;;;;;;;3.92;3.63;;;;;;;;;;5001029;28;20021;-62
2023/06/07 01:42:35;;;;;;;3.88;3.58;;;;;;;;;;5035413;28;20083;-62
2023/06/07 01:45:02;;;;;;;4.13;3.85;;;;;;;;;;5035389;28;20173;-62
2023/06/07 01:47:28;;;;;;;3.55;3.35;;;;;;;;;;5035387;28;20424;-61
2023/06/07 01:49:53;;;;;;;4.47;4.10;;;;;;;;;;5018015;28;20039;-62
2023/06/07 01:52:18;;;;;;;3.95;3.75;;;;;;;;;;5050337;28;20533;-64
2023/06/07 01:54:45;;;;;;;3.70;3.50;;;;;;;;;;5050735;28;20025;-62
2023/06/07 01:57:13;;;;;;;3.92;3.63;;;;;;;;;;5035061;28;20033;-62
2023/06/07 01:59:59;;;;;;;3.75;3.55;;;;;;;;;;5017162;28;20082;-62
2023/06/07 02:02:31;;;;;;;4.32;4.03;;;;;;;;;;5035041;28;20041;-62
2023/06/07 02:04:59;;;;;;;4.10;3.80;;;;;;;;;;5017022;28;20117;-56
2023/06/07 02:07:27;;;;;;;3.97;3.67;;;;;;;;;;5034702;28;20052;-56
2023/06/07 02:09:53;;;;;;;4.10;3.80;;;;;;;;;;5016928;28;20392;-56
2023/06/07 02:12:19;;;;;;;3.80;3.50;;;;;;;;;;5000994;28;20017;-56
2023/06/07 02:14:46;;;;;;;3.22;3.03;;;;;;;;;;5016795;28;20041;-56
2023/06/07 02:17:11;;;;;;;3.67;3.47;;;;;;;;;;5034404;28;20029;-56
2023/06/07 02:19:37;;;;;;;5.45;4.45;;;;;;;;;;5016636;28;20036;-57
2023/06/07 02:22:02;;;;;;;4.13;3.83;;;;;;;;;;5049140;28;20017;-56
2023/06/07 02:24:29;;;;;;;4.40;4.10;;;;;;;;;;5017013;28;20068;-56
2023/06/07 02:26:55;;;;;;;4.80;4.50;;;;;;;;;;5017175;28;20064;-56
2023/06/07 02:29:21;;;;;;;4.45;4.15;;;;;;;;;;5016597;28;20120;-56
2023/06/07 02:31:52;;;;;;;4.47;4.07;;;;;;;;;;5049545;28;20029;-56
2023/06/07 02:34:17;;;;;;;4.80;4.32;;;;;;;;;;5034277;28;20041;-56
2023/06/07 02:36:43;;;;;;;4.30;4.00;;;;;;;;;;5049411;28;20435;-62
2023/06/07 02:39:08;;;;;;;5.82;5.22;;;;;;;;;;5049407;28;20026;-62
2023/06/07 02:41:34;;;;;;;10.68;6.70;;;;;;;;;;5016764;28;20404;-62
2023/06/07 02:44:00;;;;;;;4.93;4.53;;;;;;;;;;5034204;28;20018;-56
2023/06/07 02:46:26;;;;;;;4.82;4.40;;;;;;;;;;5034248;28;20037;-56
2023/06/07 02:48:52;;;;;;;4.78;4.47;;;;;;;;;;5000661;28;20060;-56
2023/06/07 02:51:18;;;;;;;6.45;5.40;;;;;;;;;;5049782;28;20064;-56
2023/06/07 02:53:45;;;;;;;6.47;5.10;;;;;;;;;;5033939;28;20034;-56
2023/06/07 02:56:11;;;;;;;5.78;5.28;;;;;;;;;;5016211;28;20025;-56
2023/06/07 02:58:36;;;;;;;5.07;4.68;;;;;;;;;;5034341;28;20033;-57
2023/06/07 03:01:07;;;;;;;5.35;4.95;;;;;;;;;;5016061;28;20018;-55
2023/06/07 03:03:35;;;;;;;4.88;4.45;;;;;;;;;;5016819;28;20063;-56
2023/06/07 03:06:07;;;;;;;5.30;4.90;;;;;;;;;;5015953;28;20619;-60
2023/06/07 03:08:33;;;;;;;5.78;5.25;;;;;;;;;;5016172;28;20041;-56
2023/06/07 03:11:00;;;;;;;5.97;5.43;;;;;;;;;;5015955;28;20121;-62
2023/06/07 03:13:30;;;;;;;6.10;5.15;;;;;;;;;;5049467;28;20029;-61
2023/06/07 03:15:55;;;;;;;5.45;5.05;;;;;;;;;;5048842;28;20503;-61
2023/06/07 03:18:23;;;;;;;6.00;5.40;;;;;;;;;;5049384;28;20026;-61
2023/06/07 03:20:54;;;;;;;6.13;5.35;;;;;;;;;;5015837;28;20026;-62
2023/06/07 03:23:20;;;;;;;5.50;5.00;;;;;;;;;;5015806;28;20068;-62
2023/06/07 03:25:51;;;;;;;5.18;4.78;;;;;;;;;;5049642;28;20030;-62
2023/06/07 03:28:23;;;;;;;5.43;5.03;;;;;;;;;;5015578;28;20060;-56
2023/06/07 03:30:49;;;;;;;5.13;4.63;;;;;;;;;;5021423;23;20085;-56
2023/06/07 03:33:19;;;;;;;4.63;4.27;;;;;;;;;;5016162;28;20053;-56
2023/06/07 03:35:44;;;;;;;5.25;4.72;;;;;;;;;;5016698;28;20508;-56
2023/06/07 03:38:13;;;;;;;5.20;4.72;;;;;;;;;;5017006;28;20446;-56
2023/06/07 03:40:41;;;;;;;6.05;5.57;;;;;;;;;;5017096;28;20117;-55
2023/06/07 03:43:08;;;;;;;5.05;4.68;;;;;;;;;;5016964;28;20022;-56
2023/06/07 03:45:33;;;;;;;5.43;4.93;;;;;;;;;;5016345;28;20499;-56
2023/06/07 03:48:06;;;;;;;5.65;4.95;;;;;;;;;;5016329;28;20381;-56
2023/06/07 03:50:32;;;;;;;4.97;4.57;;;;;;;;;;5016405;28;20029;-55
2023/06/07 03:52:58;;;;;;;5.30;4.90;;;;;;;;;;5016216;28;20030;-56
2023/06/07 03:55:23;;;;;;;5.78;5.28;;;;;;;;;;5016037;28;20021;-56
2023/06/07 03:57:50;;;;;;;4.82;4.45;;;;;;;;;;5017660;28;20033;-56
2023/06/07 04:00:17;;;;;;;5.55;4.88;;;;;;;;;;5016105;28;20030;-56
2023/06/07 04:02:43;;;;;;;5.03;4.63;;;;;;;;;;5015954;28;20034;-56
2023/06/07 04:05:10;;;;;;;4.68;4.38;;;;;;;;;;5015983;28;20377;-56
2023/06/07 04:07:35;;;;;;;5.00;4.65;;;;;;;;;;5015928;28;20025;-55
2023/06/07 04:10:01;;;;;;;5.13;4.72;;;;;;;;;;5015895;28;20499;-55
2023/06/07 04:12:26;;;;;;;4.53;4.22;;;;;;;;;;5015828;28;20021;-55
2023/06/07 04:14:53;;;;;;;4.38;4.07;;;;;;;;;;5017358;28;20362;-56
2023/06/07 04:17:18;;;;;;;4.43;4.13;;;;;;;;;;5016355;28;20057;-56
2023/06/07 04:19:46;;;;;;;4.43;4.13;;;;;;;;;;5016017;28;20030;-56
2023/06/07 04:22:11;;;;;;;4.72;4.32;;;;;;;;;;5015923;28;20104;-56
2023/06/07 04:24:37;;;;;;;4.53;4.10;;;;;;;;;;5015574;28;20037;-55
2023/06/07 04:27:02;;;;;;;4.15;3.85;;;;;;;;;;5017064;28;20034;-55
2023/06/07 04:29:29;;;;;;;5.35;4.30;;;;;;;;;;5031067;28;20420;-55
2023/06/07 04:31:58;;;;;;;4.45;4.15;;;;;;;;;;5060185;28;20033;-55
2023/06/07 04:34:25;;;;;;;6.57;4.47;;;;;;;;;;5015804;28;20034;-55
2023/06/07 04:36:52;;;;;;;4.50;4.20;;;;;;;;;;5015711;28;20030;-55
2023/06/07 04:39:20;;;;;;;4.95;4.60;;;;;;;;;;5015445;28;20458;-55
2023/06/07 04:41:48;;;;;;;5.47;4.55;;;;;;;;;;5015426;28;20022;-56
2023/06/07 04:44:28;;;;;;;6.13;4.88;;;;;;;;;;5014572;28;20473;-55
2023/06/07 04:46:57;;;;;;;5.20;4.70;;;;;;;;;;5015323;28;20039;-55
2023/06/07 04:49:23;;;;;;;4.88;4.57;;;;;;;;;;5015348;28;20513;-55
2023/06/07 04:51:50;;;;;;;5.38;4.88;;;;;;;;;;5016411;28;20038;-54
2023/06/07 04:54:17;;;;;;;4.70;4.40;;;;;;;;;;5015334;28;20030;-54
2023/06/07 04:56:46;;;;;;;4.68;4.28;;;;;;;;;;5015098;28;20092;-55
2023/06/07 04:59:11;;;;;;;4.95;4.65;;;;;;;;;;5014931;28;20374;-54
2023/06/07 05:01:37;;;;;;;5.22;4.70;;;;;;;;;;5014451;28;20014;-55
2023/06/07 05:04:04;;;;;;;4.95;4.53;;;;;;;;;;5014490;28;20038;-55
2023/06/07 05:06:39;;;;;;;5.07;4.68;;;;;;;;;;5014791;28;20030;-54
2023/06/07 05:09:07;;;;;;;4.53;4.22;;;;;;;;;;5015179;28;20121;-54
2023/06/07 05:11:34;;;;;;;4.80;4.40;;;;;;;;;;5014385;28;20115;-54
2023/06/07 05:14:00;;;;;;;4.35;4.07;;;;;;;;;;5048400;28;20030;-55
2023/06/07 05:16:26;;;;;;;5.07;4.68;;;;;;;;;;5047986;28;20045;-54
2023/06/07 05:18:53;;;;;;;4.40;4.10;;;;;;;;;;5014910;28;20025;-54
2023/06/07 05:21:20;;;;;;;5.40;4.90;;;;;;;;;;5014534;28;20030;-55
2023/06/07 05:23:46;;;;;;;5.70;4.93;;;;;;;;;;5045101;28;20026;-54
2023/06/07 05:26:11;;;;;;;6.25;5.35;;;;;;;;;;5014997;28;20065;-54
2023/06/07 05:28:37;;;;;;;4.97;4.57;;;;;;;;;;5046331;28;20490;-55
2023/06/07 05:31:02;;;;;;;5.35;4.85;;;;;;;;;;5045333;28;20326;-55
2023/06/07 05:33:30;;;;;;;4.97;4.57;;;;;;;;;;5046423;28;20117;-55
2023/06/07 05:35:57;;;;;;;5.22;4.82;;;;;;;;;;4996436;28;20048;-55
2023/06/07 05:38:22;;;;;;;4.95;4.55;;;;;;;;;;5013665;28;20393;-55
2023/06/07 05:40:47;;;;;;;5.47;5.03;;;;;;;;;;5014969;28;20022;-55
2023/06/07 05:43:13;;;;;;;6.95;5.10;;;;;;;;;;5013282;28;20034;-56
2023/06/07 05:45:40;;;;;;;5.32;3.95;;;;;;;;;;5013230;28;20030;-56
2023/06/07 05:48:06;;;;;;;5.03;4.63;;;;;;;;;;5013227;28;20099;-56
2023/06/07 05:50:33;;;;;;;5.03;4.13;;;;;;;;;;5030245;28;20029;-56
2023/06/07 05:52:59;;;;;;;5.00;4.43;;;;;;;;;;5014921;28;20397;-61
2023/06/07 05:55:25;;;;;;;5.30;4.80;;;;;;;;;;5013310;28;20041;-62
2023/06/07 05:57:52;;;;;;;4.13;3.80;;;;;;;;;;5014682;28;20037;-62
2023/06/07 06:00:17;;;;;;;3.83;3.63;;;;;;;;;;5014670;28;20046;-62
2023/06/07 06:02:45;;;;;;;4.70;4.40;;;;;;;;;;5013239;28;20140;-61
2023/06/07 06:05:11;;;;;;;5.13;4.32;;;;;;;;;;5014383;28;20024;-61
2023/06/07 06:07:37;;;;;;;5.53;3.55;;;;;;;;;;5014558;28;20022;-61
2023/06/07 06:10:04;;;;;;;5.13;4.63;;;;;;;;;;5014255;28;20488;-61
2023/06/07 06:12:31;;;;;;;4.55;4.15;;;;;;;;;;5045864;28;20037;-61
2023/06/07 06:14:56;;;;;;;5.00;4.10;;;;;;;;;;5013273;28;20028;-61
2023/06/07 06:17:22;;;;;;;5.57;4.25;;;;;;;;;;5013926;28;20034;-61
2023/06/07 06:19:47;;;;;;;4.90;4.35;;;;;;;;;;4998748;28;20050;-61
2023/06/07 06:22:13;;;;;;;4.70;4.22;;;;;;;;;;4994431;28;20484;-55
2023/06/07 06:24:38;;;;;;;4.07;3.78;;;;;;;;;;4994578;28;20467;-55
2023/06/07 06:27:06;;;;;;;4.60;4.25;;;;;;;;;;4994142;28;20034;-55
2023/06/07 06:29:31;;;;;;;4.97;3.58;;;;;;;;;;4994338;28;20505;-55
2023/06/07 06:31:57;;;;;;;3.70;3.40;;;;;;;;;;5015926;28;20073;-55
2023/06/07 06:34:23;;;;;;;4.82;4.38;;;;;;;;;;5015629;28;20039;-61
2023/06/07 06:36:49;;;;;;;3.67;3.42;;;;;;;;;;5033089;28;20025;-62
2023/06/07 06:39:15;;;;;;;4.85;4.50;;;;;;;;;;5033538;28;20040;-61
2023/06/07 06:41:41;;;;;;;4.40;4.10;;;;;;;;;;5033508;28;20377;-62
2023/06/07 06:44:14;;;;;;;4.70;4.40;;;;;;;;;;5033459;28;20045;-62
2023/06/07 06:46:39;;;;;;;4.55;4.18;;;;;;;;;;5033205;28;20477;-61
2023/06/07 06:49:05;;;;;;;4.70;4.40;;;;;;;;;;5015212;28;20025;-62
2023/06/07 06:51:30;;;;;;;5.18;4.40;;;;;;;;;;5033154;28;20477;-62
2023/06/07 06:53:56;;;;;;;4.60;4.20;;;;;;;;;;5014829;28;20026;-61
2023/06/07 06:56:21;;;;;;;4.93;4.32;;;;;;;;;;5034066;28;20056;-61
2023/06/07 06:58:46;;;;;;;5.63;4.03;;;;;;;;;;5033954;28;20021;-62
2023/06/07 07:01:13;;;;;;;4.78;4.38;;;;;;;;;;5033991;28;20120;-61
2023/06/07 07:03:40;;;;;;;4.88;4.38;;;;;;;;;;5016398;28;20480;-61
2023/06/07 07:06:07;;;;;;;4.50;4.10;;;;;;;;;;5033881;28;20029;-61
2023/06/07 07:08:34;;;;;;;5.00;4.60;;;;;;;;;;5032649;28;20113;-64
2023/06/07 07:10:59;;;;;;;4.63;4.25;;;;;;;;;;5033301;28;20033;-62
2023/06/07 07:13:25;;;;;;;4.88;4.47;;;;;;;;;;5033127;28;20037;-62
2023/06/07 07:15:50;;;;;;;4.43;4.03;;;;;;;;;;5033063;28;20068;-62
2023/06/07 07:18:15;;;;;;;4.38;4.00;;;;;;;;;;5048062;28;20057;-61
2023/06/07 07:20:41;;;;;;;4.18;3.78;;;;;;;;;;5032638;28;20076;-62
2023/06/07 07:23:06;;;;;;;4.30;4.00;;;;;;;;;;5031838;28;20447;-61
2023/06/07 07:25:31;;;;;;;4.30;3.55;;;;;;;;;;5033364;28;20048;-61
2023/06/07 07:27:58;;;;;;;4.70;4.40;;;;;;;;;;5033517;28;20485;-61
2023/06/07 07:30:23;;;;;;;4.53;3.88;;;;;;;;;;5033727;28;20064;-61
2023/06/07 07:32:49;;;;;;;4.32;4.03;;;;;;;;;;5027221;28;20045;-61
2023/06/07 07:35:14;;;;;;;3.70;3.40;;;;;;;;;;4993674;28;20030;-61
2023/06/07 07:37:40;;;;;;;5.22;4.03;;;;;;;;;;4993386;28;20251;-61
2023/06/07 07:40:14;;;;;;;3.55;3.35;;;;;;;;;;4992791;28;20030;-60
2023/06/07 07:42:40;;;;;;;3.90;3.60;;;;;;;;;;4992816;28;20081;-60
2023/06/07 07:45:06;;;;;;;4.30;4.00;;;;;;;;;;4992133;28;20393;-60
2023/06/07 07:47:31;;;;;;;4.13;3.72;;;;;;;;;;4992170;28;20074;-60
2023/06/07 07:49:56;;;;;;;4.32;4.03;;;;;;;;;;4992402;28;20025;-60
2023/06/07 07:52:24;;;;;;;3.90;3.65;;;;;;;;;;4993689;28;20027;-61
2023/06/07 07:54:49;;;;;;;4.45;4.15;;;;;;;;;;4993687;28;20081;-60
2023/06/07 07:57:14;;;;;;;4.25;3.95;;;;;;;;;;4992641;28;20027;-54
2023/06/07 07:59:41;;;;;;;3.92;3.63;;;;;;;;;;4993625;28;20038;-54
2023/06/07 08:02:06;;;;;;;4.80;4.40;;;;;;;;;;4993573;28;20104;-54
2023/06/07 08:04:31;;;;;;;4.45;4.07;;;;;;;;;;4993608;28;20467;-54
2023/06/07 08:06:57;;;;;;;4.20;3.90;;;;;;;;;;4993554;28;20080;-54
2023/06/07 08:09:22;;;;;;;5.00;4.60;;;;;;;;;;4993557;28;20390;-54
2023/06/07 08:11:48;;;;;;;5.30;4.53;;;;;;;;;;4993496;28;20034;-54
2023/06/07 08:14:16;;;;;;;4.32;4.05;;;;;;;;;;4993596;28;20038;-54
2023/06/07 08:16:41;;;;;;;4.65;4.22;;;;;;;;;;4993543;28;20106;-60
2023/06/07 08:19:10;;;;;;;6.25;4.38;;;;;;;;;;5013254;23;20746;-54
2023/06/07 08:21:35;;;;;;;5.55;5.05;;;;;;;;;;5036848;28;20428;-59
2023/06/07 08:24:01;;;;;;;4.50;4.13;;;;;;;;;;5036972;28;20037;-60
2023/06/07 08:26:27;;;;;;;6.32;4.93;;;;;;;;;;5036709;28;20021;-60
2023/06/07 08:28:52;;;;;;;4.88;4.32;;;;;;;;;;5036479;28;20048;-54
2023/06/07 08:31:18;;;;;;;4.63;4.28;;;;;;;;;;5036767;28;20041;-54
2023/06/07 08:33:43;;;;;;;5.07;4.72;;;;;;;;;;5051860;28;20037;-54
2023/06/07 08:36:09;;;;;;;4.28;3.97;;;;;;;;;;5036910;28;20052;-54
2023/06/07 08:38:34;;;;;;;4.88;4.57;;;;;;;;;;5018836;28;20123;-54
2023/06/07 08:41:00;;;;;;;4.88;4.57;;;;;;;;;;5036445;28;20025;-54
2023/06/07 08:43:25;;;;;;;4.60;4.22;;;;;;;;;;5036065;28;20029;-54
2023/06/07 08:45:51;;;;;;;4.63;4.22;;;;;;;;;;5036804;28;20465;-54
2023/06/07 08:48:17;;;;;;;4.57;4.28;;;;;;;;;;5036599;28;20032;-59
2023/06/07 08:50:45;;;;;;;5.15;4.85;;;;;;;;;;5036235;28;20020;-59
2023/06/07 08:53:14;;;;;;;3.60;3.40;;;;;;;;;;5019185;28;20346;-60
2023/06/07 08:55:40;;;;;;;4.07;3.77;;;;;;;;;;5036434;28;20021;-60
2023/06/07 08:58:06;;;;;;;4.85;4.55;;;;;;;;;;5036272;28;20083;-60
2023/06/07 09:00:32;;;;;;;4.38;3.97;;;;;;;;;;5036160;28;20407;-60
2023/06/07 09:02:58;;;;;;;3.92;3.63;;;;;;;;;;5036256;28;20037;-60
2023/06/07 09:05:23;;;;;;;4.50;3.95;;;;;;;;;;5018442;28;20068;-60
2023/06/07 09:07:50;;;;;;;3.70;3.40;;;;;;;;;;5035143;28;20017;-60
2023/06/07 09:10:17;;;;;;;4.20;3.80;;;;;;;;;;5035475;28;20032;-60
2023/06/07 09:12:45;;;;;;;3.55;3.25;;;;;;;;;;5017857;28;20436;-65
2023/06/07 09:15:21;;;;;;;3.58;3.38;;;;;;;;;;5034664;28;20540;-61
2023/06/07 09:17:50;;;;;;;3.42;3.22;;;;;;;;;;5035119;28;20032;-60
2023/06/07 09:20:19;;;;;;;3.42;3.22;;;;;;;;;;5017344;28;20060;-60
2023/06/07 09:22:57;;;;;;;3.53;3.13;;;;;;;;;;5035278;28;20357;-60
2023/06/07 09:25:22;;;;;;;3.40;3.10;;;;;;;;;;5016645;28;20036;-60
2023/06/07 09:27:51;;;;;;;3.03;2.83;;;;;;;;;;5034774;28;20368;-54
2023/06/07 09:30:17;;;;;;;2.72;2.60;;;;;;;;;;5034519;28;20044;-54
2023/06/07 09:32:43;;;;;;;2.55;2.40;;;;;;;;;;5034721;28;20057;-54
2023/06/07 09:35:12;;;;;;;2.88;2.67;;;;;;;;;;5034758;28;20048;-54
2023/06/07 09:37:47;;;;;;;3.00;2.78;;;;;;;;;;5035190;28;20036;-54
2023/06/07 09:40:13;;;;;;;3.17;2.97;;;;;;;;;;5035563;28;20112;-54
2023/06/07 09:42:39;;;;;;;3.22;2.25;;;;;;;;;;5035378;28;20057;-54
2023/06/07 09:45:10;;;;;;;2.30;2.10;;;;;;;;;;5035757;28;20160;-54
2023/06/07 09:47:36;;;;;;;2.40;2.20;;;;;;;;;;5035355;28;20111;-54
2023/06/07 09:50:11;;;;;;;2.92;2.70;;;;;;;;;;5034948;28;20044;-54
2023/06/07 09:52:37;;;;;;;2.45;2.20;;;;;;;;;;5035216;28;20152;-56
2023/06/07 09:55:02;;;;;;;2.40;2.20;;;;;;;;;;5035356;28;20044;-57
2023/06/07 09:57:29;;;;;;;2.35;2.25;;;;;;;;;;5035029;28;20022;-57
2023/06/07 09:59:55;;;;;;;2.15;2.05;;;;;;;;;;5050377;28;20096;-56
2023/06/07 10:02:25;;;;;;;2.28;2.08;;;;;;;;;;5035662;28;20025;-63
2023/06/07 10:04:50;;;;;;;2.53;2.10;;;;;;;;;;5035029;28;20036;-63
2023/06/07 10:07:17;;;;;;;2.67;2.50;;;;;;;;;;5034805;28;20025;-63
2023/06/07 10:09:43;;;;;;;2.72;2.63;;;;;;;;;;5034861;28;20017;-63
2023/06/07 10:12:10;;;;;;;2.50;2.40;;;;;;;;;;5034834;28;20116;-63
2023/06/07 10:14:36;;;;;;;2.58;2.47;;;;;;;;;;5034821;28;20033;-62
2023/06/07 10:17:06;;;;;;;2.85;2.67;;;;;;;;;;5034595;28;20387;-63
2023/06/07 10:19:41;;;;;;;2.60;2.40;;;;;;;;;;5034479;28;20489;-63
2023/06/07 10:22:19;;;;;;;2.90;2.70;;;;;;;;;;5017089;28;20452;-63
2023/06/07 10:24:48;;;;;;;3.08;2.63;;;;;;;;;;5034292;28;20455;-62
2023/06/07 10:27:16;;;;;;;3.08;2.72;;;;;;;;;;5034365;28;20048;-63
2023/06/07 10:29:45;;;;;;;2.67;2.50;;;;;;;;;;5034287;28;20025;-63
2023/06/07 10:32:16;;;;;;;3.35;3.05;;;;;;;;;;5034500;28;20057;-63
2023/06/07 10:34:43;;;;;;;3.10;2.88;;;;;;;;;;5034155;28;20025;-56
2023/06/07 10:37:09;;;;;;;2.63;2.53;;;;;;;;;;5034234;28;20049;-57
2023/06/07 10:39:35;;;;;;;2.78;2.60;;;;;;;;;;5034366;28;20355;-56
2023/06/07 10:42:01;;;;;;;3.35;2.60;;;;;;;;;;5033765;28;20026;-56
2023/06/07 10:44:28;;;;;;;2.55;2.45;;;;;;;;;;5034285;28;20164;-57
2023/06/07 10:47:12;;;;;;;4.70;2.67;;;;;;;;;;5034307;28;20037;-56
2023/06/07 10:49:37;;;;;;;2.70;2.50;;;;;;;;;;5034331;28;20033;-56
2023/06/07 10:52:05;;;;;;;2.47;2.38;;;;;;;;;;5016428;28;20026;-56
2023/06/07 10:54:31;;;;;;;2.80;2.60;;;;;;;;;;5034230;28;20030;-56
2023/06/07 10:56:57;;;;;;;2.28;2.08;;;;;;;;;;5033850;28;20025;-56
2023/06/07 10:59:23;;;;;;;2.80;2.63;;;;;;;;;;5034275;28;20034;-56
2023/06/07 11:01:49;;;;;;;2.70;2.50;;;;;;;;;;5016556;28;20040;-62
2023/06/07 11:04:26;;;;;;;2.58;2.47;;;;;;;;;;5033916;28;20424;-62
2023/06/07 11:07:10;;;;;;;2.80;2.60;;;;;;;;;;5034088;28;20044;-63
2023/06/07 11:09:36;;;;;;;2.47;2.28;;;;;;;;;;5034235;28;20389;-63
2023/06/07 11:12:03;;;;;;;2.55;2.45;;;;;;;;;;5033964;28;20029;-63
2023/06/07 11:14:28;;;;;;;2.35;2.22;;;;;;;;;;5033488;28;20108;-63
2023/06/07 11:16:53;;;;;;;2.30;2.20;;;;;;;;;;5033764;28;20556;-63
2023/06/07 11:19:19;;;;;;;2.50;2.40;;;;;;;;;;5033898;28;20034;-63
2023/06/07 11:21:54;;;;;;;2.70;2.50;;;;;;;;;;5034178;28;20535;-63
2023/06/07 11:24:20;;;;;;;2.33;2.22;;;;;;;;;;5033716;28;20025;-63
2023/06/07 11:26:47;;;;;;;2.53;2.33;;;;;;;;;;5033773;28;20052;-63
2023/06/07 11:29:14;;;;;;;2.05;1.95;;;;;;;;;;5033805;28;20035;-63
2023/06/07 11:31:39;;;;;;;2.97;2.35;;;;;;;;;;5033712;28;20071;-63
2023/06/07 11:34:05;;;;;;;2.20;2.10;;;;;;;;;;5033805;28;20033;-63
2023/06/07 11:36:31;;;;;;;3.17;2.20;;;;;;;;;;5033337;28;20117;-63
2023/06/07 11:38:59;;;;;;;1.92;1.83;;;;;;;;;;5033488;28;20029;-63
2023/06/07 11:41:24;;;;;;;2.30;2.20;;;;;;;;;;5033591;28;20513;-63
2023/06/07 11:43:50;;;;;;;5.00;4.50;;;;;;;;;;5015972;28;20060;-63
2023/06/07 11:46:16;;;;;;;5.28;4.78;;;;;;;;;;5033545;28;20033;-63
2023/06/07 11:48:42;;;;;;;4.60;4.20;;;;;;;;;;5033567;28;20037;-63
2023/06/07 11:51:08;;;;;;;1.52;1.42;;;;;;;;;;5033301;28;20038;-63
2023/06/07 11:53:33;;;;;;;1.48;1.48;;;;;;;;;;5035242;28;20086;-63
2023/06/07 11:55:59;;;;;;;1.92;1.83;;;;;;;;;;5037101;28;20045;-63
2023/06/07 11:58:27;;;;;;;2.30;2.03;;;;;;;;;;5037387;28;20037;-63
2023/06/07 12:00:53;;;;;;;2.55;1.98;;;;;;;;;;5037315;28;20107;-63
2023/06/07 12:03:21;;;;;;;2.60;2.40;;;;;;;;;;5037407;28;20029;-63
2023/06/07 12:05:48;;;;;;;2.17;2.08;;;;;;;;;;5037465;28;20425;-56
2023/06/07 12:08:15;;;;;;;1.90;1.80;;;;;;;;;;5036719;28;20065;-63
2023/06/07 12:10:40;;;;;;;2.22;2.13;;;;;;;;;;5037074;28;20416;-63
2023/06/07 12:13:16;;;;;;;2.03;1.88;;;;;;;;;;5036901;28;20045;-63
2023/06/07 12:15:48;;;;;;;2.00;1.90;;;;;;;;;;5036772;28;20039;-63
2023/06/07 12:18:14;;;;;;;2.22;1.80;;;;;;;;;;5037193;28;20488;-63
2023/06/07 12:20:44;;;;;;;2.60;2.40;;;;;;;;;;5036833;28;20052;-63
2023/06/07 12:23:12;;;;;;;2.95;2.00;;;;;;;;;;5036841;28;20022;-63
2023/06/07 12:25:38;;;;;;;2.85;2.75;;;;;;;;;;5019273;28;20075;-62
2023/06/07 12:28:05;;;;;;;2.40;2.30;;;;;;;;;;5036359;28;20473;-63
2023/06/07 12:30:31;;;;;;;2.80;2.70;;;;;;;;;;5035756;28;20044;-63
2023/06/07 12:32:58;;;;;;;4.05;2.00;;;;;;;;;;5018068;28;20033;-63
2023/06/07 12:35:23;;;;;;;2.03;1.92;;;;;;;;;;5036326;28;20493;-63
2023/06/07 12:37:49;;;;;;;16.52;2.90;;;;;;;;;;5036071;28;20037;-60
2023/06/07 12:40:14;;;;;;;2.15;2.05;;;;;;;;;;5036068;28;20044;-60
2023/06/07 12:42:45;;;;;;;3.25;2.30;;;;;;;;;;5035845;28;20021;-60
2023/06/07 12:45:10;;;;;;;1.90;1.80;;;;;;;;;;5036332;28;20037;-60
2023/06/07 12:47:36;;;;;;;1.67;1.60;;;;;;;;;;5036021;28;20017;-60
2023/06/07 12:50:01;;;;;;;2.70;2.60;;;;;;;;;;5036430;28;20500;-60
2023/06/07 12:52:27;;;;;;;2.10;2.00;;;;;;;;;;5036168;28;20492;-60
2023/06/07 12:54:53;;;;;;;1.80;1.70;;;;;;;;;;5035648;28;20900;-61
2023/06/07 12:57:18;;;;;;;4.63;1.85;;;;;;;;;;5036004;28;20157;-61
2023/06/07 12:59:43;;;;;;;1.42;1.38;;;;;;;;;;5018832;28;20535;-61
2023/06/07 13:02:11;;;;;;;1.50;1.48;;;;;;;;;;5036093;28;20061;-61
2023/06/07 13:04:36;;;;;;;1.67;1.58;;;;;;;;;;5035813;28;20021;-60
2023/06/07 13:07:09;;;;;;;2.30;1.60;;;;;;;;;;5034308;28;20520;-56
2023/06/07 13:09:35;;;;;;;2.85;2.05;;;;;;;;;;5035504;28;20108;-54
2023/06/07 13:12:04;;;;;;;1.80;1.70;;;;;;;;;;5035403;28;20488;-61
2023/06/07 13:14:30;;;;;;;2.10;1.90;;;;;;;;;;5050344;28;20030;-54
2023/06/07 13:16:56;;;;;;;1.75;1.48;;;;;;;;;;5034812;28;20048;-55
2023/06/07 13:19:21;;;;;;;1.95;1.85;;;;;;;;;;5013317;28;20397;-54
2023/06/07 13:21:47;;;;;;;2.72;2.38;;;;;;;;;;5015071;28;20033;-54
2023/06/07 13:24:12;;;;;;;2.08;1.98;;;;;;;;;;5015059;28;20022;-55
2023/06/07 13:26:39;;;;;;;2.33;2.22;;;;;;;;;;5014661;28;20435;-55
2023/06/07 13:29:04;;;;;;;2.03;1.92;;;;;;;;;;5015287;28;20029;-55
2023/06/07 13:31:30;;;;;;;2.33;2.22;;;;;;;;;;5014823;28;20149;-55
2023/06/07 13:33:56;;;;;;;2.20;2.10;;;;;;;;;;5014948;28;20042;-55
2023/06/07 13:36:22;;;;;;;2.05;1.95;;;;;;;;;;5014979;28;20042;-55
2023/06/07 13:38:48;;;;;;;2.50;2.38;;;;;;;;;;5013863;28;20030;-56
2023/06/07 13:41:14;;;;;;;2.33;1.80;;;;;;;;;;5014213;28;20465;-56
2023/06/07 13:43:40;;;;;;;2.42;2.33;;;;;;;;;;5014703;28;20595;-56
2023/06/07 13:46:06;;;;;;;2.10;2.00;;;;;;;;;;5014739;28;20038;-56
2023/06/07 13:48:34;;;;;;;2.35;2.15;;;;;;;;;;5015039;28;20117;-56
2023/06/07 13:51:00;;;;;;;2.83;2.30;;;;;;;;;;5013563;28;20079;-56
2023/06/07 13:53:25;;;;;;;2.30;2.20;;;;;;;;;;5013858;28;20025;-56
2023/06/07 13:55:51;;;;;;;2.13;1.75;;;;;;;;;;5013520;28;20033;-56
2023/06/07 13:58:18;;;;;;;2.67;2.08;;;;;;;;;;5013882;28;20029;-56
2023/06/07 14:00:44;;;;;;;1.90;1.80;;;;;;;;;;5015415;28;20030;-56
2023/06/07 14:03:10;;;;;;;2.55;2.35;;;;;;;;;;5015119;28;20044;-56
2023/06/07 14:05:35;;;;;;;2.40;2.05;;;;;;;;;;5015578;28;20038;-56
2023/06/07 14:08:01;;;;;;;3.38;2.33;;;;;;;;;;5015296;28;20018;-56
2023/06/07 14:10:28;;;;;;;2.47;2.38;;;;;;;;;;5013563;28;20013;-61
2023/06/07 14:12:53;;;;;;;2.55;1.88;;;;;;;;;;5015191;28;20042;-62
2023/06/07 14:15:19;;;;;;;1.98;1.88;;;;;;;;;;5013711;28;20076;-62
2023/06/07 14:17:44;;;;;;;2.00;1.73;;;;;;;;;;5012033;28;20018;-62
2023/06/07 14:20:10;;;;;;;2.20;2.10;;;;;;;;;;5023788;28;20041;-61
2023/06/07 14:22:35;;;;;;;2.50;2.30;;;;;;;;;;5015657;28;20693;-61
2023/06/07 14:25:00;;;;;;;2.55;2.45;;;;;;;;;;5033820;28;20033;-56
2023/06/07 14:27:26;;;;;;;3.88;2.45;;;;;;;;;;5016087;28;20025;-56
2023/06/07 14:29:51;;;;;;;2.20;2.10;;;;;;;;;;5016057;28;20048;-61
2023/06/07 14:32:16;;;;;;;2.88;2.78;;;;;;;;;;5034021;28;20029;-61
2023/06/07 14:34:42;;;;;;;2.22;2.13;;;;;;;;;;5033055;28;20021;-61
2023/06/07 14:37:10;;;;;;;2.80;2.70;;;;;;;;;;5033178;28;20397;-61
2023/06/07 14:39:36;;;;;;;2.88;2.58;;;;;;;;;;5029556;28;20038;-62
2023/06/07 14:42:02;;;;;;;2.70;2.55;;;;;;;;;;5033584;28;20029;-56